createdAt,value
2022-09-22T00:01:06.171Z,4.47
2022-09-22T00:03:37.658Z,4.60
2022-09-22T00:06:10.608Z,4.00
2022-09-22T00:08:39.882Z,4.20
2022-09-22T00:11:16.824Z,2.97
2022-09-22T00:13:46.652Z,3.50
2022-09-22T00:16:15.587Z,3.40
2022-09-22T00:18:42.427Z,4.03
2022-09-22T00:21:12.588Z,4.10
2022-09-22T00:23:40.619Z,4.85
2022-09-22T00:26:10.399Z,4.97
2022-09-22T00:28:38.655Z,6.25
2022-09-22T00:31:12.468Z,5.82
2022-09-22T00:33:41.359Z,5.53
2022-09-22T00:36:08.797Z,3.72
2022-09-22T00:38:37.127Z,3.40
2022-09-22T00:41:04.906Z,3.40
2022-09-22T00:43:36.453Z,3.50
2022-09-22T00:46:12.508Z,3.88
2022-09-22T00:48:44.640Z,4.65
2022-09-22T00:53:40.229Z,4.38
2022-09-22T00:56:15.001Z,5.32
2022-09-22T00:58:47.580Z,5.72
2022-09-22T01:01:15.880Z,5.70
2022-09-22T01:03:43.886Z,4.72
2022-09-22T01:06:15.025Z,5.28
2022-09-22T01:08:44.600Z,4.57
2022-09-22T01:11:13.311Z,3.92
2022-09-22T01:13:52.053Z,3.22
2022-09-22T01:16:25.455Z,2.90
2022-09-22T01:19:26.396Z,3.03
2022-09-22T01:22:12.553Z,3.03
2022-09-22T01:24:58.923Z,2.67
2022-09-22T01:27:44.414Z,3.17
2022-09-22T01:30:16.450Z,3.40
2022-09-22T01:36:07.370Z,4.28
2022-09-22T01:39:15.942Z,2.83
2022-09-22T01:42:00.559Z,3.10
2022-09-22T01:44:33.955Z,2.70
2022-09-22T01:47:11.079Z,3.60
2022-09-22T01:49:44.079Z,2.90
2022-09-22T01:52:16.712Z,3.40
2022-09-22T01:54:58.360Z,3.50
2022-09-22T01:57:51.377Z,4.20
2022-09-22T02:00:18.390Z,3.50
2022-09-22T02:02:58.066Z,3.55
2022-09-22T02:05:36.854Z,3.75
2022-09-22T02:08:09.996Z,3.63
2022-09-22T02:10:42.054Z,3.15
2022-09-22T02:15:54.196Z,3.78
2022-09-22T02:18:27.481Z,3.40
2022-09-22T02:20:54.160Z,2.67
2022-09-22T02:23:20.860Z,2.60
2022-09-22T02:25:48.929Z,2.40
2022-09-22T02:28:20.251Z,2.35
2022-09-22T02:31:10.541Z,2.03
2022-09-22T02:33:38.518Z,2.50
2022-09-22T02:36:23.336Z,2.55
2022-09-22T02:39:00.045Z,3.05
2022-09-22T02:41:55.152Z,3.15
2022-09-22T02:44:28.773Z,3.10
2022-09-22T02:47:22.512Z,2.63
2022-09-22T02:49:50.962Z,2.60
2022-09-22T02:52:19.971Z,3.05
2022-09-22T02:54:46.786Z,2.55
2022-09-22T02:57:13.441Z,2.40
2022-09-22T02:59:40.137Z,2.38
2022-09-22T03:02:06.823Z,2.40
2022-09-22T03:04:33.536Z,2.45
2022-09-22T03:07:00.224Z,2.30
2022-09-22T03:09:26.883Z,1.88
2022-09-22T03:11:53.544Z,2.72
2022-09-22T03:14:20.169Z,2.80
2022-09-22T03:16:46.905Z,3.42
2022-09-22T03:19:13.530Z,2.70
2022-09-22T03:21:40.224Z,2.45
2022-09-22T03:24:06.976Z,2.22
2022-09-22T03:26:34.766Z,2.60
2022-09-22T03:29:03.384Z,3.20
2022-09-22T03:31:30.028Z,2.90
2022-09-22T03:33:56.782Z,3.17
2022-09-22T03:36:23.578Z,2.30
2022-09-22T03:38:51.929Z,2.67
2022-09-22T03:41:19.487Z,2.90
2022-09-22T03:43:46.140Z,3.30
2022-09-22T03:46:14.197Z,2.85
2022-09-22T03:48:44.952Z,3.80
2022-09-22T03:51:12.218Z,3.55
2022-09-22T03:53:39.026Z,3.55
2022-09-22T03:56:11.381Z,3.70
2022-09-22T03:58:38.957Z,3.75
2022-09-22T04:01:07.250Z,2.95
2022-09-22T04:03:34.921Z,2.50
2022-09-22T04:06:02.278Z,2.88
2022-09-22T04:08:28.952Z,3.17
2022-09-22T04:10:57.666Z,3.35
2022-09-22T04:13:24.357Z,3.58
2022-09-22T04:15:50.986Z,2.40
2022-09-22T04:18:17.653Z,2.65
2022-09-22T04:20:45.199Z,2.67
2022-09-22T04:23:13.202Z,3.85
2022-09-22T04:25:39.858Z,2.88
2022-09-22T04:28:07.108Z,2.65
2022-09-22T04:30:35.213Z,2.05
2022-09-22T04:33:03.302Z,1.88
2022-09-22T04:35:30.440Z,2.22
2022-09-22T04:37:58.060Z,1.83
2022-09-22T04:40:25.598Z,2.20
2022-09-22T04:42:52.353Z,2.00
2022-09-22T04:45:19.170Z,1.70
2022-09-22T04:47:47.261Z,1.80
2022-09-22T04:50:14.161Z,3.10
2022-09-22T04:52:48.678Z,2.45
2022-09-22T04:55:15.539Z,2.30
2022-09-22T04:57:43.132Z,1.83
2022-09-22T05:00:10.347Z,2.45
2022-09-22T05:02:36.979Z,2.10
2022-09-22T05:05:05.522Z,1.80
2022-09-22T05:07:32.756Z,2.05
2022-09-22T05:09:59.620Z,1.80
2022-09-22T05:12:27.064Z,1.60
2022-09-22T05:14:53.803Z,1.63
2022-09-22T05:17:20.532Z,1.50
2022-09-22T05:19:47.169Z,2.10
2022-09-22T05:22:13.794Z,1.90
2022-09-22T05:24:42.438Z,2.03
2022-09-22T05:27:09.263Z,2.90
2022-09-22T05:29:35.881Z,3.10
2022-09-22T05:32:02.977Z,2.30
2022-09-22T05:34:29.658Z,2.13
2022-09-22T05:36:56.309Z,2.00
2022-09-22T05:39:23.093Z,1.95
2022-09-22T05:41:49.913Z,4.82
2022-09-22T05:44:16.888Z,4.68
2022-09-22T05:46:43.546Z,7.35
2022-09-22T05:49:10.160Z,7.95
2022-09-22T05:51:36.797Z,6.22
2022-09-22T05:54:03.473Z,4.05
2022-09-22T05:56:31.821Z,3.20
2022-09-22T05:58:58.678Z,2.65
2022-09-22T06:01:25.409Z,5.35
2022-09-22T06:03:52.096Z,5.32
2022-09-22T06:06:18.840Z,5.43
2022-09-22T06:08:48.870Z,5.97
2022-09-22T06:11:15.880Z,5.18
2022-09-22T06:13:43.491Z,5.20
2022-09-22T06:16:10.201Z,5.07
2022-09-22T06:18:37.484Z,4.38
2022-09-22T06:21:04.402Z,4.82
2022-09-22T06:23:31.929Z,4.65
2022-09-22T06:25:59.245Z,3.85
2022-09-22T06:28:26.018Z,3.50
2022-09-22T06:30:52.679Z,3.75
2022-09-22T06:33:19.756Z,4.10
2022-09-22T06:35:46.551Z,4.22
2022-09-22T06:38:15.265Z,3.92
2022-09-22T06:40:43.054Z,3.67
2022-09-22T06:43:22.557Z,2.80
2022-09-22T06:45:51.294Z,2.72
2022-09-22T06:48:18.912Z,3.85
2022-09-22T06:50:51.674Z,3.65
2022-09-22T06:53:19.159Z,6.97
2022-09-22T06:55:46.190Z,6.15
2022-09-22T06:58:14.688Z,4.35
2022-09-22T07:00:43.562Z,4.20
2022-09-22T07:03:20.561Z,5.32
2022-09-22T07:05:54.802Z,3.85
2022-09-22T07:08:22.837Z,3.08
2022-09-22T07:10:57.794Z,2.83
2022-09-22T07:13:25.950Z,2.92
2022-09-22T07:15:52.732Z,2.80
2022-09-22T07:18:19.439Z,2.70
2022-09-22T07:20:46.517Z,2.55
2022-09-22T07:23:18.999Z,3.10
2022-09-22T07:25:59.391Z,2.60
2022-09-22T07:28:28.345Z,2.85
2022-09-22T07:31:28.593Z,2.60
2022-09-22T07:33:56.058Z,2.72
2022-09-22T07:36:26.152Z,2.65
2022-09-22T07:38:55.812Z,2.53
2022-09-22T07:41:27.394Z,2.83
2022-09-22T07:44:18.061Z,3.35
2022-09-22T07:46:45.792Z,2.83
2022-09-22T07:49:15.057Z,2.33
2022-09-22T07:51:42.125Z,2.40
2022-09-22T07:54:08.966Z,2.63
2022-09-22T07:56:40.044Z,2.85
2022-09-22T07:59:10.243Z,3.17
2022-09-22T08:01:41.974Z,3.03
2022-09-22T08:04:11.876Z,2.97
2022-09-22T08:06:38.527Z,2.80
2022-09-22T08:09:06.902Z,2.90
2022-09-22T08:11:34.095Z,2.72
2022-09-22T08:14:06.441Z,2.60
2022-09-22T08:16:35.160Z,2.97
2022-09-22T08:19:10.473Z,2.80
2022-09-22T08:21:47.712Z,3.75
2022-09-22T08:24:21.040Z,2.55
2022-09-22T08:26:50.075Z,3.38
2022-09-22T08:29:16.871Z,2.22
2022-09-22T08:31:45.404Z,2.28
2022-09-22T08:34:13.890Z,2.22
2022-09-22T08:36:42.677Z,2.30
2022-09-22T08:39:09.317Z,2.35
2022-09-22T08:42:07.227Z,2.17
2022-09-22T08:44:39.852Z,2.63
2022-09-22T08:47:13.209Z,2.40
2022-09-22T08:50:07.083Z,3.00
2022-09-22T08:52:54.512Z,2.45
2022-09-22T08:55:23.597Z,2.70
2022-09-22T08:58:08.700Z,2.30
2022-09-22T09:00:42.937Z,2.60
2022-09-22T09:03:28.835Z,2.35
2022-09-22T09:06:26.509Z,2.15
2022-09-22T09:09:36.032Z,1.90
2022-09-22T09:12:19.128Z,2.25
2022-09-22T09:15:08.625Z,2.40
2022-09-22T09:17:38.944Z,2.80
2022-09-22T09:20:17.436Z,2.55
2022-09-22T09:22:55.723Z,3.15
2022-09-22T09:25:40.387Z,2.10
2022-09-22T09:28:27.974Z,2.10
2022-09-22T09:31:04.955Z,2.08
2022-09-22T09:34:03.903Z,2.30
2022-09-22T09:36:35.094Z,1.70
2022-09-22T09:39:14.540Z,1.77
2022-09-22T09:41:43.521Z,1.60
2022-09-22T09:44:20.349Z,1.50
2022-09-22T09:47:06.554Z,1.50
2022-09-22T09:49:33.560Z,1.20
2022-09-22T09:52:07.211Z,1.48
2022-09-22T09:54:33.971Z,1.50
2022-09-22T09:57:20.479Z,1.40
2022-09-22T10:00:31.696Z,1.48
2022-09-22T10:03:16.103Z,1.10
2022-09-22T10:05:43.418Z,1.05
2022-09-22T10:08:20.833Z,1.27
2022-09-22T10:10:48.568Z,1.20
2022-09-22T10:13:34.142Z,1.13
2022-09-22T10:16:04.601Z,1.05
2022-09-22T10:18:40.198Z,1.08
2022-09-22T10:21:20.599Z,1.08
2022-09-22T10:23:48.724Z,1.00
2022-09-22T10:26:20.273Z,1.00
2022-09-22T10:29:05.917Z,0.90
2022-09-22T10:31:33.100Z,1.08
2022-09-22T10:34:00.701Z,0.90
2022-09-22T10:36:30.770Z,0.85
2022-09-22T10:38:59.787Z,0.95
2022-09-22T10:41:34.279Z,0.68
2022-09-22T10:47:23.577Z,0.82
2022-09-22T10:50:13.287Z,0.88
2022-09-22T10:52:54.680Z,0.98
2022-09-22T10:55:37.242Z,0.82
2022-09-22T10:58:07.154Z,0.88
2022-09-22T11:00:39.679Z,0.70
2022-09-22T11:03:06.289Z,0.80
2022-09-22T11:06:13.799Z,0.80
2022-09-22T11:09:14.249Z,0.80
2022-09-22T11:12:05.754Z,0.55
2022-09-22T11:15:37.631Z,0.55
2022-09-22T11:18:32.397Z,0.90
2022-09-22T11:21:42.971Z,0.82
2022-09-22T11:24:46.093Z,0.68
2022-09-22T11:27:43.033Z,0.70
2022-09-22T11:30:20.481Z,0.88
2022-09-22T11:33:04.790Z,0.77
2022-09-22T11:35:54.970Z,0.90
2022-09-22T11:38:46.893Z,0.68
2022-09-22T11:41:37.221Z,0.88
2022-09-22T11:44:39.244Z,0.90
2022-09-22T11:49:54.932Z,0.85
2022-09-22T11:52:30.512Z,0.73
2022-09-22T11:55:18.652Z,0.60
2022-09-22T11:57:51.157Z,1.15
2022-09-22T12:00:20.966Z,1.15
2022-09-22T12:03:01.994Z,0.80
2022-09-22T12:05:41.539Z,0.73
2022-09-22T12:08:23.612Z,0.98
2022-09-22T12:10:51.991Z,0.73
2022-09-22T12:13:22.062Z,0.70
2022-09-22T12:16:05.992Z,0.60
2022-09-22T12:18:45.109Z,0.75
2022-09-22T12:21:31.018Z,1.02
2022-09-22T12:24:02.886Z,0.93
2022-09-22T12:26:33.077Z,0.70
2022-09-22T12:29:01.902Z,0.82
2022-09-22T12:31:34.955Z,1.08
2022-09-22T12:34:03.027Z,0.70
2022-09-22T12:36:37.605Z,1.00
2022-09-22T12:39:11.636Z,0.70
2022-09-22T12:41:58.159Z,0.73
2022-09-22T12:44:44.466Z,0.70
2022-09-22T12:47:23.079Z,0.77
2022-09-22T12:49:55.833Z,0.70
2022-09-22T12:52:40.648Z,0.68
2022-09-22T12:55:28.814Z,0.70
2022-09-22T12:57:57.562Z,0.82
2022-09-22T13:00:30.638Z,0.70
2022-09-22T13:03:00.446Z,0.80
2022-09-22T13:05:27.072Z,0.55
2022-09-22T13:07:55.804Z,0.85
2022-09-22T13:10:25.184Z,0.73
2022-09-22T13:13:05.698Z,0.70
2022-09-22T13:15:47.297Z,0.52
2022-09-22T13:20:57.623Z,0.57
2022-09-22T13:23:24.321Z,0.70
2022-09-22T13:25:51.838Z,0.70
2022-09-22T13:28:23.976Z,0.50
2022-09-22T13:31:05.954Z,1.00
2022-09-22T13:33:35.159Z,0.80
2022-09-22T13:36:13.111Z,0.68
2022-09-22T13:38:43.194Z,0.93
2022-09-22T13:41:13.666Z,0.80
2022-09-22T13:43:43.099Z,0.60
2022-09-22T13:46:29.953Z,0.70
2022-09-22T13:48:58.688Z,0.73
2022-09-22T13:51:27.721Z,0.60
2022-09-22T13:53:57.551Z,0.70
2022-09-22T13:56:25.739Z,0.60
2022-09-22T13:58:56.865Z,0.80
2022-09-22T14:01:25.662Z,0.70
2022-09-22T14:03:53.565Z,0.60
2022-09-22T14:06:26.100Z,0.70
2022-09-22T14:08:53.924Z,0.75
2022-09-22T14:11:28.118Z,0.70
2022-09-22T14:13:54.919Z,0.52
2022-09-22T14:16:38.709Z,0.60
2022-09-22T14:19:44.005Z,0.70
2022-09-22T14:22:21.231Z,0.70
2022-09-22T14:24:55.485Z,0.85
2022-09-22T14:27:33.469Z,0.90
2022-09-22T14:30:00.969Z,0.80
2022-09-22T14:32:39.711Z,0.98
2022-09-22T14:35:37.640Z,0.82
2022-09-22T14:38:16.191Z,0.60
2022-09-22T14:40:54.202Z,0.70
2022-09-22T14:43:27.519Z,0.90
2022-09-22T14:46:07.333Z,0.85
2022-09-22T14:48:38.983Z,0.80
2022-09-22T14:51:08.366Z,0.57
2022-09-22T14:53:45.722Z,0.90
2022-09-22T14:56:28.166Z,0.90
2022-09-22T14:58:59.082Z,0.93
2022-09-22T15:01:48.399Z,1.00
2022-09-22T15:04:24.163Z,0.80
2022-09-22T15:06:53.214Z,0.82
2022-09-22T15:09:31.734Z,0.90
2022-09-22T15:12:00.513Z,1.10
2022-09-22T15:14:42.688Z,0.90
2022-09-22T15:17:54.086Z,0.80
2022-09-22T15:20:28.223Z,0.85
2022-09-22T15:22:55.131Z,1.10
2022-09-22T15:25:22.421Z,0.93
2022-09-22T15:27:53.249Z,0.98
2022-09-22T15:30:22.361Z,1.00
2022-09-22T15:32:49.553Z,0.70
2022-09-22T15:35:17.906Z,0.90
2022-09-22T15:37:50.013Z,1.10
2022-09-22T15:40:21.208Z,0.70
2022-09-22T15:43:09.029Z,0.88
2022-09-22T15:45:37.209Z,1.10
2022-09-22T15:48:04.240Z,0.70
2022-09-22T15:50:31.081Z,0.85
2022-09-22T15:52:57.936Z,0.70
2022-09-22T15:55:24.967Z,0.90
2022-09-22T15:57:55.268Z,0.82
2022-09-22T16:00:28.451Z,0.77
2022-09-22T16:02:55.168Z,1.00
2022-09-22T16:05:22.574Z,0.90
2022-09-22T16:07:51.602Z,0.85
2022-09-22T16:10:22.716Z,1.08
2022-09-22T16:12:49.827Z,1.10
2022-09-22T16:15:16.961Z,1.50
2022-09-22T16:17:45.716Z,1.10
2022-09-22T16:20:16.565Z,1.25
2022-09-22T16:22:45.376Z,1.52
2022-09-22T16:25:12.894Z,1.40
2022-09-22T16:27:39.568Z,1.50
2022-09-22T16:30:07.169Z,1.55
2022-09-22T16:32:33.985Z,1.40
2022-09-22T16:35:00.924Z,1.35
2022-09-22T16:37:29.192Z,1.20
2022-09-22T16:39:56.212Z,1.67
2022-09-22T16:42:23.806Z,1.25
2022-09-22T16:44:50.903Z,1.40
2022-09-22T16:47:22.692Z,1.20
2022-09-22T16:49:51.120Z,1.10
2022-09-22T16:52:20.001Z,1.10
2022-09-22T16:54:46.767Z,0.80
2022-09-22T16:57:13.537Z,1.00
2022-09-22T16:59:40.870Z,1.00
2022-09-22T17:02:10.451Z,0.85
2022-09-22T17:04:37.254Z,1.10
2022-09-22T17:07:04.111Z,1.30
2022-09-22T17:09:32.236Z,1.10
2022-09-22T17:11:58.996Z,1.08
2022-09-22T17:14:28.963Z,0.93
2022-09-22T17:16:57.679Z,1.00
2022-09-22T17:19:26.523Z,0.90
2022-09-22T17:21:55.341Z,1.00
2022-09-22T17:24:23.448Z,0.80
2022-09-22T17:26:56.381Z,1.50
2022-09-22T17:29:26.005Z,4.10
2022-09-22T17:31:57.212Z,6.15
2022-09-22T17:34:24.720Z,5.15
2022-09-22T17:36:52.441Z,2.90
2022-09-22T17:39:19.093Z,2.00
2022-09-22T17:41:47.008Z,1.95
2022-09-22T17:44:20.857Z,1.85
2022-09-22T17:47:07.881Z,2.00
2022-09-22T17:49:53.424Z,1.40
2022-09-22T17:52:29.249Z,1.73
2022-09-22T17:55:06.925Z,1.35
2022-09-22T17:57:45.176Z,1.40
2022-09-22T18:00:17.510Z,1.17
2022-09-22T18:02:44.944Z,1.33
2022-09-22T18:05:13.939Z,1.20
2022-09-22T18:07:41.147Z,1.20
2022-09-22T18:10:14.401Z,1.60
2022-09-22T18:12:41.428Z,1.38
2022-09-22T18:15:12.717Z,1.80
2022-09-22T18:17:43.846Z,1.60
2022-09-22T18:20:18.143Z,1.90
2022-09-22T18:22:47.997Z,2.42
2022-09-22T18:25:16.468Z,3.65
2022-09-22T18:27:44.146Z,5.60
2022-09-22T18:30:15.391Z,11.40
2022-09-22T18:32:42.783Z,10.10
2022-09-22T18:35:09.695Z,8.10
2022-09-22T18:37:36.330Z,7.90
2022-09-22T18:40:03.914Z,7.15
2022-09-22T18:42:32.334Z,7.60
2022-09-22T18:44:58.966Z,6.68
2022-09-22T18:47:26.216Z,6.00
2022-09-22T18:49:52.887Z,5.85
2022-09-22T18:52:24.583Z,5.70
2022-09-22T18:54:53.815Z,6.47
2022-09-22T18:57:22.649Z,9.05
2022-09-22T18:59:50.796Z,7.82
2022-09-22T19:02:22.165Z,6.97
2022-09-22T19:07:38.907Z,5.03
2022-09-22T19:10:08.517Z,6.95
2022-09-22T19:12:39.655Z,5.80
2022-09-22T19:15:15.449Z,6.65
2022-09-22T19:17:46.501Z,6.65
2022-09-22T19:20:20.852Z,6.45
2022-09-22T19:22:49.234Z,5.40
2022-09-22T19:25:16.729Z,6.65
2022-09-22T19:27:43.480Z,6.60
2022-09-22T19:30:11.295Z,5.60
2022-09-22T19:32:38.678Z,6.30
2022-09-22T19:35:06.900Z,6.15
2022-09-22T19:37:33.615Z,6.50
2022-09-22T19:40:00.283Z,5.85
2022-09-22T19:42:28.544Z,4.55
2022-09-22T19:44:55.702Z,6.72
2022-09-22T19:47:22.602Z,6.13
2022-09-22T19:49:49.425Z,6.57
2022-09-22T19:52:16.303Z,5.18
2022-09-22T19:54:44.396Z,5.80
2022-09-22T19:57:11.201Z,5.47
2022-09-22T19:59:38.014Z,6.07
2022-09-22T20:02:05.954Z,4.88
2022-09-22T20:04:36.948Z,5.10
2022-09-22T20:07:03.765Z,6.13
2022-09-22T20:09:30.478Z,5.15
2022-09-22T20:11:57.341Z,6.25
2022-09-22T20:14:25.364Z,5.82
2022-09-22T20:16:57.202Z,8.15
2022-09-22T20:19:25.760Z,8.68
2022-09-22T20:21:54.449Z,7.18
2022-09-22T20:24:22.828Z,7.43
2022-09-22T20:26:49.912Z,7.15
2022-09-22T20:29:17.096Z,8.25
2022-09-22T20:31:44.126Z,8.55
2022-09-22T20:34:14.929Z,8.27
2022-09-22T20:36:43.210Z,9.30
2022-09-22T20:39:15.085Z,9.30
2022-09-22T20:41:43.046Z,9.57
2022-09-22T20:44:14.790Z,6.93
2022-09-22T20:46:42.958Z,6.03
2022-09-22T20:49:13.376Z,6.78
2022-09-22T20:51:41.482Z,4.80
2022-09-22T20:54:09.002Z,5.65
2022-09-22T20:56:39.406Z,7.03
2022-09-22T20:59:08.878Z,7.95
2022-09-22T21:01:35.661Z,7.55
2022-09-22T21:04:02.363Z,7.13
2022-09-22T21:06:30.853Z,6.75
2022-09-22T21:09:16.574Z,7.38
2022-09-22T21:11:43.988Z,6.30
2022-09-22T21:14:11.188Z,8.13
2022-09-22T21:16:39.864Z,8.70
2022-09-22T21:19:08.219Z,7.93
2022-09-22T21:21:39.021Z,7.05
2022-09-22T21:24:06.007Z,8.73
2022-09-22T21:26:33.155Z,8.73
2022-09-22T21:29:00.035Z,8.95
2022-09-22T21:31:27.734Z,9.25
2022-09-22T21:33:54.644Z,8.95
2022-09-22T21:36:22.782Z,8.70
2022-09-22T21:38:55.514Z,7.07
2022-09-22T21:41:24.181Z,5.95
2022-09-22T21:43:51.313Z,5.93
2022-09-22T21:46:23.836Z,5.95
2022-09-22T21:48:50.720Z,6.38
2022-09-22T21:51:20.507Z,5.35
2022-09-22T21:53:50.490Z,6.35
2022-09-22T21:56:18.369Z,7.15
2022-09-22T21:58:47.875Z,7.22
2022-09-22T22:01:21.948Z,7.18
2022-09-22T22:03:50.759Z,8.32
2022-09-22T22:06:26.169Z,6.90
2022-09-22T22:09:00.454Z,7.20
2022-09-22T22:11:39.072Z,6.75
2022-09-22T22:14:11.065Z,6.20
2022-09-22T22:16:46.023Z,7.28
2022-09-22T22:19:15.013Z,7.03
2022-09-22T22:21:42.850Z,6.63
2022-09-22T22:24:17.881Z,5.93
2022-09-22T22:26:47.025Z,5.90
2022-09-22T22:29:14.396Z,5.65
2022-09-22T22:31:42.059Z,6.32
2022-09-22T22:34:10.326Z,5.10
2022-09-22T22:36:36.997Z,4.90
2022-09-22T22:39:04.295Z,5.00
2022-09-22T22:41:31.029Z,4.78
2022-09-22T22:43:58.067Z,4.97
2022-09-22T22:46:24.904Z,5.93
2022-09-22T22:48:51.572Z,6.40
2022-09-22T22:51:22.999Z,6.45
2022-09-22T22:53:50.721Z,6.72
2022-09-22T22:56:22.669Z,6.25
2022-09-22T22:58:50.668Z,5.55
2022-09-22T23:01:23.179Z,4.95
2022-09-22T23:04:04.856Z,4.45
2022-09-22T23:06:34.477Z,4.38
2022-09-22T23:09:01.600Z,4.35
2022-09-22T23:11:30.565Z,5.30
2022-09-22T23:14:01.929Z,5.25
2022-09-22T23:16:31.028Z,5.13
2022-09-22T23:19:01.266Z,5.28
2022-09-22T23:21:30.263Z,4.60
2022-09-22T23:23:57.260Z,5.43
2022-09-22T23:26:24.045Z,5.32
2022-09-22T23:28:52.556Z,5.50
2022-09-22T23:31:21.459Z,5.32
2022-09-22T23:33:50.371Z,6.38
2022-09-22T23:36:22.749Z,5.63
2022-09-22T23:38:56.905Z,4.30
2022-09-22T23:41:23.682Z,3.80
2022-09-22T23:43:50.492Z,5.00
2022-09-22T23:46:17.467Z,3.75
2022-09-22T23:48:44.182Z,4.95
2022-09-22T23:51:10.840Z,5.20
2022-09-22T23:53:38.827Z,4.70
2022-09-22T23:56:06.754Z,5.60
2022-09-22T23:58:34.582Z,5.18
